sensor_id;sensor_type;location;lat;lon;timestamp;pressure;altitude;pressure_sealevel;temperature;humidity
58018;BME280;43810;50.860;19.226;2023-02-04T00:01:48;97739.44;;;2.07;91.96
58018;BME280;43810;50.860;19.226;2023-02-04T00:04:14;97748.66;;;2.05;92.18
58018;BME280;43810;50.860;19.226;2023-02-04T00:06:41;97754.59;;;1.97;92.46
58018;BME280;43810;50.860;19.226;2023-02-04T00:09:06;97750.22;;;1.92;92.19
58018;BME280;43810;50.860;19.226;2023-02-04T00:11:33;97765.94;;;1.92;92.25
58018;BME280;43810;50.860;19.226;2023-02-04T00:13:59;97750.53;;;1.91;92.06
58018;BME280;43810;50.860;19.226;2023-02-04T00:16:25;97752.16;;;1.87;92.00
58018;BME280;43810;50.860;19.226;2023-02-04T00:18:50;97743.94;;;1.80;92.53
58018;BME280;43810;50.860;19.226;2023-02-04T00:21:16;97750.22;;;1.79;92.56
58018;BME280;43810;50.860;19.226;2023-02-04T00:23:42;97754.41;;;1.80;92.81
58018;BME280;43810;50.860;19.226;2023-02-04T00:26:08;97754.28;;;1.85;92.43
58018;BME280;43810;50.860;19.226;2023-02-04T00:28:34;97763.22;;;1.84;92.75
58018;BME280;43810;50.860;19.226;2023-02-04T00:31:00;97749.63;;;1.82;92.91
58018;BME280;43810;50.860;19.226;2023-02-04T00:33:26;97748.19;;;1.76;92.65
58018;BME280;43810;50.860;19.226;2023-02-04T00:35:52;97752.16;;;1.73;93.02
58018;BME280;43810;50.860;19.226;2023-02-04T00:38:17;97755.66;;;1.68;93.14
58018;BME280;43810;50.860;19.226;2023-02-04T00:40:43;97753.72;;;1.74;92.89
58018;BME280;43810;50.860;19.226;2023-02-04T00:43:09;97760.00;;;1.73;92.77
58018;BME280;43810;50.860;19.226;2023-02-04T00:45:35;97760.78;;;1.73;93.08
58018;BME280;43810;50.860;19.226;2023-02-04T00:48:01;97755.06;;;1.71;92.97
58018;BME280;43810;50.860;19.226;2023-02-04T00:50:27;97750.59;;;1.72;92.74
58018;BME280;43810;50.860;19.226;2023-02-04T00:52:53;97752.56;;;1.66;92.68
58018;BME280;43810;50.860;19.226;2023-02-04T00:55:19;97747.69;;;1.60;92.98
58018;BME280;43810;50.860;19.226;2023-02-04T00:57:45;97752.63;;;1.61;92.79
58018;BME280;43810;50.860;19.226;2023-02-04T01:00:16;97745.28;;;1.63;92.94
58018;BME280;43810;50.860;19.226;2023-02-04T01:02:42;97752.25;;;1.68;92.68
58018;BME280;43810;50.860;19.226;2023-02-04T01:05:08;97754.28;;;1.71;92.22
58018;BME280;43810;50.860;19.226;2023-02-04T01:07:34;97760.91;;;1.68;92.17
58018;BME280;43810;50.860;19.226;2023-02-04T01:10:01;97757.19;;;1.69;92.30
58018;BME280;43810;50.860;19.226;2023-02-04T01:12:26;97758.28;;;1.68;92.32
58018;BME280;43810;50.860;19.226;2023-02-04T01:14:54;97764.38;;;1.64;92.22
58018;BME280;43810;50.860;19.226;2023-02-04T01:17:20;97766.59;;;1.57;92.35
58018;BME280;43810;50.860;19.226;2023-02-04T01:19:47;97762.16;;;1.57;92.66
58018;BME280;43810;50.860;19.226;2023-02-04T01:22:13;97765.22;;;1.59;92.57
58018;BME280;43810;50.860;19.226;2023-02-04T01:24:39;97768.44;;;1.56;92.24
58018;BME280;43810;50.860;19.226;2023-02-04T01:27:04;97758.81;;;1.52;92.62
58018;BME280;43810;50.860;19.226;2023-02-04T01:29:30;97772.47;;;1.49;92.63
58018;BME280;43810;50.860;19.226;2023-02-04T01:31:56;97772.78;;;1.47;92.97
58018;BME280;43810;50.860;19.226;2023-02-04T01:34:22;97770.47;;;1.46;93.09
58018;BME280;43810;50.860;19.226;2023-02-04T01:36:50;97771.53;;;1.45;92.85
58018;BME280;43810;50.860;19.226;2023-02-04T01:39:16;97772.09;;;1.42;92.50
58018;BME280;43810;50.860;19.226;2023-02-04T01:41:42;97782.06;;;1.40;92.75
58018;BME280;43810;50.860;19.226;2023-02-04T01:44:08;97774.00;;;1.36;93.07
58018;BME280;43810;50.860;19.226;2023-02-04T01:46:35;97784.09;;;1.29;92.87
58018;BME280;43810;50.860;19.226;2023-02-04T01:49:03;97784.47;;;1.22;93.06
58018;BME280;43810;50.860;19.226;2023-02-04T01:51:29;97795.78;;;1.18;93.25
58018;BME280;43810;50.860;19.226;2023-02-04T01:53:58;97791.97;;;1.10;92.91
58018;BME280;43810;50.860;19.226;2023-02-04T01:56:25;97790.47;;;1.04;93.29
58018;BME280;43810;50.860;19.226;2023-02-04T01:58:53;97794.66;;;1.05;93.56
58018;BME280;43810;50.860;19.226;2023-02-04T02:01:46;97807.72;;;1.05;93.60
58018;BME280;43810;50.860;19.226;2023-02-04T02:04:16;97812.19;;;1.05;93.19
58018;BME280;43810;50.860;19.226;2023-02-04T02:06:46;97811.41;;;1.04;93.32
58018;BME280;43810;50.860;19.226;2023-02-04T02:09:14;97813.81;;;1.00;93.15
58018;BME280;43810;50.860;19.226;2023-02-04T02:11:40;97820.91;;;1.00;93.37
58018;BME280;43810;50.860;19.226;2023-02-04T02:14:07;97823.53;;;1.00;93.07
58018;BME280;43810;50.860;19.226;2023-02-04T02:16:32;97825.63;;;0.98;92.64
58018;BME280;43810;50.860;19.226;2023-02-04T02:18:59;97843.22;;;0.92;92.82
58018;BME280;43810;50.860;19.226;2023-02-04T02:21:52;97852.91;;;0.92;93.00
58018;BME280;43810;50.860;19.226;2023-02-04T02:24:33;97861.03;;;0.90;92.39
58018;BME280;43810;50.860;19.226;2023-02-04T02:27:04;97861.31;;;0.89;92.97
58018;BME280;43810;50.860;19.226;2023-02-04T02:29:32;97872.91;;;0.83;92.86
58018;BME280;43810;50.860;19.226;2023-02-04T02:31:58;97878.69;;;0.80;92.92
58018;BME280;43810;50.860;19.226;2023-02-04T02:34:26;97898.06;;;0.79;93.06
58018;BME280;43810;50.860;19.226;2023-02-04T02:36:52;97903.88;;;0.76;93.03
58018;BME280;43810;50.860;19.226;2023-02-04T02:39:19;97904.91;;;0.75;93.06
58018;BME280;43810;50.860;19.226;2023-02-04T02:41:46;97929.16;;;0.56;92.69
58018;BME280;43810;50.860;19.226;2023-02-04T02:44:13;97939.47;;;0.48;93.00
58018;BME280;43810;50.860;19.226;2023-02-04T02:46:41;97946.78;;;0.46;92.92
58018;BME280;43810;50.860;19.226;2023-02-04T02:49:13;97958.69;;;0.33;93.25
58018;BME280;43810;50.860;19.226;2023-02-04T02:51:40;97984.09;;;0.27;92.71
58018;BME280;43810;50.860;19.226;2023-02-04T02:54:27;98002.47;;;0.17;93.19
58018;BME280;43810;50.860;19.226;2023-02-04T02:56:54;98014.25;;;0.10;92.98
58018;BME280;43810;50.860;19.226;2023-02-04T02:59:21;98030.50;;;0.07;92.83
58018;BME280;43810;50.860;19.226;2023-02-04T03:01:50;98049.34;;;-0.01;93.13
58018;BME280;43810;50.860;19.226;2023-02-04T03:04:19;98075.50;;;-0.06;93.19
58018;BME280;43810;50.860;19.226;2023-02-04T03:06:46;98074.22;;;-0.14;92.78
58018;BME280;43810;50.860;19.226;2023-02-04T03:09:12;98097.78;;;-0.19;92.93
58018;BME280;43810;50.860;19.226;2023-02-04T03:11:38;98113.72;;;-0.26;93.06
58018;BME280;43810;50.860;19.226;2023-02-04T03:14:05;98123.22;;;-0.45;92.41
58018;BME280;43810;50.860;19.226;2023-02-04T03:16:31;98126.38;;;-0.53;92.06
58018;BME280;43810;50.860;19.226;2023-02-04T03:19:00;98165.53;;;-0.58;91.82
58018;BME280;43810;50.860;19.226;2023-02-04T03:21:26;98184.34;;;-0.66;91.66
58018;BME280;43810;50.860;19.226;2023-02-04T03:23:53;98176.28;;;-0.75;91.50
58018;BME280;43810;50.860;19.226;2023-02-04T03:26:25;98187.50;;;-0.74;91.46
58018;BME280;43810;50.860;19.226;2023-02-04T03:28:52;98203.91;;;-0.84;91.56
58018;BME280;43810;50.860;19.226;2023-02-04T03:31:19;98221.66;;;-0.86;92.30
58018;BME280;43810;50.860;19.226;2023-02-04T03:33:45;98239.94;;;-0.86;91.89
58018;BME280;43810;50.860;19.226;2023-02-04T03:36:10;98253.22;;;-0.88;92.13
58018;BME280;43810;50.860;19.226;2023-02-04T03:38:36;98279.03;;;-0.86;91.90
58018;BME280;43810;50.860;19.226;2023-02-04T03:41:02;98270.94;;;-0.85;91.66
58018;BME280;43810;50.860;19.226;2023-02-04T03:43:28;98299.63;;;-1.00;91.48
58018;BME280;43810;50.860;19.226;2023-02-04T03:45:54;98294.41;;;-1.00;92.03
58018;BME280;43810;50.860;19.226;2023-02-04T03:48:20;98324.66;;;-1.09;91.71
58018;BME280;43810;50.860;19.226;2023-02-04T03:50:46;98334.31;;;-1.09;91.91
58018;BME280;43810;50.860;19.226;2023-02-04T03:53:12;98361.88;;;-1.19;91.74
58018;BME280;43810;50.860;19.226;2023-02-04T03:55:37;98367.13;;;-1.13;92.18
58018;BME280;43810;50.860;19.226;2023-02-04T03:58:04;98376.50;;;-1.07;92.08
58018;BME280;43810;50.860;19.226;2023-02-04T04:00:29;98393.47;;;-1.05;92.21
58018;BME280;43810;50.860;19.226;2023-02-04T04:02:57;98420.59;;;-1.06;91.94
58018;BME280;43810;50.860;19.226;2023-02-04T04:05:23;98431.53;;;-1.09;92.02
58018;BME280;43810;50.860;19.226;2023-02-04T04:07:49;98444.00;;;-1.21;92.00
58018;BME280;43810;50.860;19.226;2023-02-04T04:10:15;98441.41;;;-1.21;92.10
58018;BME280;43810;50.860;19.226;2023-02-04T04:12:42;98456.78;;;-1.20;92.19
58018;BME280;43810;50.860;19.226;2023-02-04T04:15:08;98467.72;;;-1.23;92.30
58018;BME280;43810;50.860;19.226;2023-02-04T04:17:34;98483.84;;;-1.26;92.12
58018;BME280;43810;50.860;19.226;2023-02-04T04:19:59;98498.66;;;-1.36;91.72
58018;BME280;43810;50.860;19.226;2023-02-04T04:22:28;98519.22;;;-1.40;91.79
58018;BME280;43810;50.860;19.226;2023-02-04T04:24:53;98533.81;;;-1.39;91.38
58018;BME280;43810;50.860;19.226;2023-02-04T04:27:19;98530.94;;;-1.42;91.41
58018;BME280;43810;50.860;19.226;2023-02-04T04:29:45;98559.06;;;-1.44;91.62
58018;BME280;43810;50.860;19.226;2023-02-04T04:32:11;98571.31;;;-1.45;91.12
58018;BME280;43810;50.860;19.226;2023-02-04T04:34:37;98583.81;;;-1.47;91.23
58018;BME280;43810;50.860;19.226;2023-02-04T04:37:03;98603.38;;;-1.44;90.90
58018;BME280;43810;50.860;19.226;2023-02-04T04:39:29;98608.59;;;-1.39;91.27
58018;BME280;43810;50.860;19.226;2023-02-04T04:41:55;98628.94;;;-1.36;90.94
58018;BME280;43810;50.860;19.226;2023-02-04T04:44:21;98627.31;;;-1.47;90.39
58018;BME280;43810;50.860;19.226;2023-02-04T04:46:47;98669.06;;;-1.42;90.50
58018;BME280;43810;50.860;19.226;2023-02-04T04:49:13;98673.72;;;-1.44;90.50
58018;BME280;43810;50.860;19.226;2023-02-04T04:51:39;98685.41;;;-1.47;90.21
58018;BME280;43810;50.860;19.226;2023-02-04T04:54:05;98683.50;;;-1.57;89.93
58018;BME280;43810;50.860;19.226;2023-02-04T04:56:30;98710.91;;;-1.54;89.99
58018;BME280;43810;50.860;19.226;2023-02-04T04:58:56;98734.81;;;-1.57;88.97
58018;BME280;43810;50.860;19.226;2023-02-04T05:01:22;98733.28;;;-1.53;88.86
58018;BME280;43810;50.860;19.226;2023-02-04T05:03:48;98763.75;;;-1.53;88.66
58018;BME280;43810;50.860;19.226;2023-02-04T05:06:14;98766.31;;;-1.59;88.57
58018;BME280;43810;50.860;19.226;2023-02-04T05:08:40;98787.22;;;-1.53;89.18
58018;BME280;43810;50.860;19.226;2023-02-04T05:11:06;98786.44;;;-1.54;89.56
58018;BME280;43810;50.860;19.226;2023-02-04T05:13:32;98817.94;;;-1.56;89.74
58018;BME280;43810;50.860;19.226;2023-02-04T05:15:58;98826.16;;;-1.64;89.49
58018;BME280;43810;50.860;19.226;2023-02-04T05:18:23;98843.44;;;-1.58;89.32
58018;BME280;43810;50.860;19.226;2023-02-04T05:20:50;98861.06;;;-1.65;88.53
58018;BME280;43810;50.860;19.226;2023-02-04T05:23:15;98847.00;;;-1.64;88.65
58018;BME280;43810;50.860;19.226;2023-02-04T05:25:42;98860.91;;;-1.58;88.83
58018;BME280;43810;50.860;19.226;2023-02-04T05:28:07;98869.97;;;-1.61;88.55
58018;BME280;43810;50.860;19.226;2023-02-04T05:30:33;98883.25;;;-1.62;88.38
58018;BME280;43810;50.860;19.226;2023-02-04T05:32:59;98907.44;;;-1.67;88.53
58018;BME280;43810;50.860;19.226;2023-02-04T05:35:25;98915.84;;;-1.60;89.40
58018;BME280;43810;50.860;19.226;2023-02-04T05:37:51;98928.69;;;-1.53;89.18
58018;BME280;43810;50.860;19.226;2023-02-04T05:40:17;98940.63;;;-1.57;88.22
58018;BME280;43810;50.860;19.226;2023-02-04T05:42:43;98948.75;;;-1.53;88.04
58018;BME280;43810;50.860;19.226;2023-02-04T05:45:13;98965.13;;;-1.58;87.65
58018;BME280;43810;50.860;19.226;2023-02-04T05:47:39;98985.94;;;-1.58;87.97
58018;BME280;43810;50.860;19.226;2023-02-04T05:50:05;99009.88;;;-1.61;87.95
58018;BME280;43810;50.860;19.226;2023-02-04T05:52:31;99007.50;;;-1.63;87.62
58018;BME280;43810;50.860;19.226;2023-02-04T05:54:57;99022.44;;;-1.58;88.03
58018;BME280;43810;50.860;19.226;2023-02-04T05:57:23;99032.47;;;-1.67;87.63
58018;BME280;43810;50.860;19.226;2023-02-04T05:59:49;99050.84;;;-1.57;87.54
58018;BME280;43810;50.860;19.226;2023-02-04T06:02:14;99056.63;;;-1.54;87.50
58018;BME280;43810;50.860;19.226;2023-02-04T06:04:40;99070.44;;;-1.54;87.21
58018;BME280;43810;50.860;19.226;2023-02-04T06:07:06;99083.53;;;-1.66;86.54
58018;BME280;43810;50.860;19.226;2023-02-04T06:09:32;99092.13;;;-1.65;87.43
58018;BME280;43810;50.860;19.226;2023-02-04T06:11:58;99099.47;;;-1.62;87.12
58018;BME280;43810;50.860;19.226;2023-02-04T06:14:24;99100.25;;;-1.62;86.73
58018;BME280;43810;50.860;19.226;2023-02-04T06:16:50;99113.28;;;-1.62;86.91
58018;BME280;43810;50.860;19.226;2023-02-04T06:19:16;99102.31;;;-1.64;86.91
58018;BME280;43810;50.860;19.226;2023-02-04T06:21:42;99120.53;;;-1.64;86.67
58018;BME280;43810;50.860;19.226;2023-02-04T06:24:08;99130.19;;;-1.64;87.06
58018;BME280;43810;50.860;19.226;2023-02-04T06:26:34;99142.84;;;-1.56;87.15
58018;BME280;43810;50.860;19.226;2023-02-04T06:29:00;99148.84;;;-1.56;87.40
58018;BME280;43810;50.860;19.226;2023-02-04T06:31:26;99154.84;;;-1.55;86.67
58018;BME280;43810;50.860;19.226;2023-02-04T06:33:52;99172.13;;;-1.49;86.47
58018;BME280;43810;50.860;19.226;2023-02-04T06:36:18;99177.84;;;-1.64;85.75
58018;BME280;43810;50.860;19.226;2023-02-04T06:38:44;99196.19;;;-1.59;86.30
58018;BME280;43810;50.860;19.226;2023-02-04T06:41:10;99205.59;;;-1.58;85.94
58018;BME280;43810;50.860;19.226;2023-02-04T06:43:36;99207.66;;;-1.60;85.36
58018;BME280;43810;50.860;19.226;2023-02-04T06:46:01;99221.47;;;-1.59;85.62
58018;BME280;43810;50.860;19.226;2023-02-04T06:48:27;99222.03;;;-1.57;85.84
58018;BME280;43810;50.860;19.226;2023-02-04T06:50:53;99245.69;;;-1.59;85.64
58018;BME280;43810;50.860;19.226;2023-02-04T06:53:19;99235.63;;;-1.55;86.19
58018;BME280;43810;50.860;19.226;2023-02-04T06:55:45;99247.84;;;-1.56;86.59
58018;BME280;43810;50.860;19.226;2023-02-04T06:58:11;99261.09;;;-1.57;86.63
58018;BME280;43810;50.860;19.226;2023-02-04T07:00:36;99261.66;;;-1.55;85.94
58018;BME280;43810;50.860;19.226;2023-02-04T07:03:03;99281.81;;;-1.50;85.53
58018;BME280;43810;50.860;19.226;2023-02-04T07:05:29;99283.28;;;-1.43;86.30
58018;BME280;43810;50.860;19.226;2023-02-04T07:07:56;99290.41;;;-1.50;85.09
58018;BME280;43810;50.860;19.226;2023-02-04T07:10:21;99293.59;;;-1.48;85.72
58018;BME280;43810;50.860;19.226;2023-02-04T07:12:47;99298.78;;;-1.48;85.68
58018;BME280;43810;50.860;19.226;2023-02-04T07:15:13;99304.47;;;-1.51;85.38
58018;BME280;43810;50.860;19.226;2023-02-04T07:17:39;99324.06;;;-1.48;85.16
58018;BME280;43810;50.860;19.226;2023-02-04T07:20:05;99331.72;;;-1.42;85.77
58018;BME280;43810;50.860;19.226;2023-02-04T07:22:31;99339.28;;;-1.29;85.65
58018;BME280;43810;50.860;19.226;2023-02-04T07:24:57;99358.25;;;-1.33;84.66
58018;BME280;43810;50.860;19.226;2023-02-04T07:27:23;99349.59;;;-1.22;85.05
58018;BME280;43810;50.860;19.226;2023-02-04T07:29:49;99362.72;;;-1.17;85.06
58018;BME280;43810;50.860;19.226;2023-02-04T07:32:15;99368.38;;;-1.08;85.19
58018;BME280;43810;50.860;19.226;2023-02-04T07:34:40;99377.84;;;-1.02;84.84
58018;BME280;43810;50.860;19.226;2023-02-04T07:37:06;99381.44;;;-0.92;84.23
58018;BME280;43810;50.860;19.226;2023-02-04T07:39:32;99374.56;;;-0.98;84.30
58018;BME280;43810;50.860;19.226;2023-02-04T07:41:58;99397.66;;;-0.90;84.68
58018;BME280;43810;50.860;19.226;2023-02-04T07:44:23;99391.59;;;-0.78;84.81
58018;BME280;43810;50.860;19.226;2023-02-04T07:46:49;99396.16;;;-0.86;84.37
58018;BME280;43810;50.860;19.226;2023-02-04T07:49:15;99406.03;;;-0.88;85.13
58018;BME280;43810;50.860;19.226;2023-02-04T07:51:41;99410.69;;;-0.90;84.68
58018;BME280;43810;50.860;19.226;2023-02-04T07:54:07;99431.56;;;-0.90;85.21
58018;BME280;43810;50.860;19.226;2023-02-04T07:56:33;99427.75;;;-0.99;84.34
58018;BME280;43810;50.860;19.226;2023-02-04T07:58:59;99444.50;;;-0.95;84.75
58018;BME280;43810;50.860;19.226;2023-02-04T08:01:25;99443.19;;;-0.80;84.95
58018;BME280;43810;50.860;19.226;2023-02-04T08:03:51;99453.91;;;-0.94;84.78
58018;BME280;43810;50.860;19.226;2023-02-04T08:06:17;99453.56;;;-0.86;84.93
58018;BME280;43810;50.860;19.226;2023-02-04T08:08:43;99467.50;;;-0.92;85.09
58018;BME280;43810;50.860;19.226;2023-02-04T08:11:09;99473.13;;;-1.11;85.11
58018;BME280;43810;50.860;19.226;2023-02-04T08:13:34;99481.41;;;-1.14;85.21
58018;BME280;43810;50.860;19.226;2023-02-04T08:16:00;99495.91;;;-1.19;85.39
58018;BME280;43810;50.860;19.226;2023-02-04T08:18:26;99489.34;;;-1.09;85.92
58018;BME280;43810;50.860;19.226;2023-02-04T08:20:52;99498.38;;;-1.00;85.59
58018;BME280;43810;50.860;19.226;2023-02-04T08:23:18;99487.75;;;-1.10;84.41
58018;BME280;43810;50.860;19.226;2023-02-04T08:25:44;99499.44;;;-1.13;84.28
58018;BME280;43810;50.860;19.226;2023-02-04T08:28:10;99501.59;;;-1.22;83.80
58018;BME280;43810;50.860;19.226;2023-02-04T08:30:36;99508.28;;;-1.14;83.87
58018;BME280;43810;50.860;19.226;2023-02-04T08:33:02;99525.72;;;-1.03;83.56
58018;BME280;43810;50.860;19.226;2023-02-04T08:35:28;99528.97;;;-0.96;83.63
58018;BME280;43810;50.860;19.226;2023-02-04T08:37:53;99537.25;;;-0.75;83.08
58018;BME280;43810;50.860;19.226;2023-02-04T08:40:20;99535.84;;;-0.66;82.68
58018;BME280;43810;50.860;19.226;2023-02-04T08:42:46;99536.09;;;-0.79;82.40
58018;BME280;43810;50.860;19.226;2023-02-04T08:45:12;99540.88;;;-0.76;82.81
58018;BME280;43810;50.860;19.226;2023-02-04T08:47:37;99544.69;;;-0.67;81.86
58018;BME280;43810;50.860;19.226;2023-02-04T08:50:03;99548.25;;;-0.73;81.71
58018;BME280;43810;50.860;19.226;2023-02-04T08:52:29;99548.59;;;-0.93;81.97
58018;BME280;43810;50.860;19.226;2023-02-04T08:54:55;99564.69;;;-0.85;82.14
58018;BME280;43810;50.860;19.226;2023-02-04T08:57:21;99563.91;;;-0.85;81.83
58018;BME280;43810;50.860;19.226;2023-02-04T08:59:47;99582.72;;;-0.95;81.24
58018;BME280;43810;50.860;19.226;2023-02-04T09:02:12;99570.69;;;-0.84;80.84
58018;BME280;43810;50.860;19.226;2023-02-04T09:04:38;99580.19;;;-0.55;80.92
58018;BME280;43810;50.860;19.226;2023-02-04T09:07:04;99583.06;;;-0.28;80.74
58018;BME280;43810;50.860;19.226;2023-02-04T09:09:30;99587.13;;;-0.03;79.69
58018;BME280;43810;50.860;19.226;2023-02-04T09:11:56;99609.13;;;-0.16;80.30
58018;BME280;43810;50.860;19.226;2023-02-04T09:14:22;99601.38;;;-0.39;80.44
58018;BME280;43810;50.860;19.226;2023-02-04T09:16:47;99608.59;;;-0.82;80.67
58018;BME280;43810;50.860;19.226;2023-02-04T09:19:14;99616.75;;;-0.90;80.39
58018;BME280;43810;50.860;19.226;2023-02-04T09:21:41;99615.41;;;-1.04;80.80
58018;BME280;43810;50.860;19.226;2023-02-04T09:24:07;99618.13;;;-1.10;80.57
58018;BME280;43810;50.860;19.226;2023-02-04T09:26:33;99628.44;;;-1.04;81.26
58018;BME280;43810;50.860;19.226;2023-02-04T09:28:59;99631.28;;;-0.94;80.43
58018;BME280;43810;50.860;19.226;2023-02-04T09:31:24;99627.19;;;-0.90;79.32
58018;BME280;43810;50.860;19.226;2023-02-04T09:33:50;99631.28;;;-0.82;78.65
58018;BME280;43810;50.860;19.226;2023-02-04T09:36:16;99641.63;;;-0.87;77.52
58018;BME280;43810;50.860;19.226;2023-02-04T09:38:42;99650.69;;;-0.90;78.14
58018;BME280;43810;50.860;19.226;2023-02-04T09:41:10;99654.75;;;-0.94;78.78
58018;BME280;43810;50.860;19.226;2023-02-04T09:43:42;99665.97;;;-0.93;79.04
58018;BME280;43810;50.860;19.226;2023-02-04T09:46:20;99674.38;;;-1.03;79.46
58018;BME280;43810;50.860;19.226;2023-02-04T09:48:47;99674.28;;;-1.08;79.10
58018;BME280;43810;50.860;19.226;2023-02-04T09:51:17;99692.28;;;-1.06;78.77
58018;BME280;43810;50.860;19.226;2023-02-04T09:53:44;99692.50;;;-1.20;78.88
58018;BME280;43810;50.860;19.226;2023-02-04T09:56:10;99710.78;;;-1.08;77.56
58018;BME280;43810;50.860;19.226;2023-02-04T09:58:37;99711.31;;;-1.17;77.09
58018;BME280;43810;50.860;19.226;2023-02-04T10:03:43;99721.06;;;-1.13;78.43
58018;BME280;43810;50.860;19.226;2023-02-04T10:06:14;99717.31;;;-1.17;77.73
58018;BME280;43810;50.860;19.226;2023-02-04T10:08:41;99717.66;;;-1.25;76.82
58018;BME280;43810;50.860;19.226;2023-02-04T10:11:08;99730.59;;;-1.48;76.64
58018;BME280;43810;50.860;19.226;2023-02-04T10:13:37;99729.69;;;-1.54;76.68
58018;BME280;43810;50.860;19.226;2023-02-04T10:16:13;99742.53;;;-1.41;76.56
58018;BME280;43810;50.860;19.226;2023-02-04T10:18:40;99748.72;;;-1.24;76.90
58018;BME280;43810;50.860;19.226;2023-02-04T10:21:16;99741.91;;;-1.25;75.33
58018;BME280;43810;50.860;19.226;2023-02-04T10:23:45;99742.91;;;-1.26;75.49
58018;BME280;43810;50.860;19.226;2023-02-04T10:26:13;99746.81;;;-1.05;75.39
58018;BME280;43810;50.860;19.226;2023-02-04T10:28:41;99747.31;;;-0.96;74.48
58018;BME280;43810;50.860;19.226;2023-02-04T10:31:36;99759.19;;;-1.12;74.01
58018;BME280;43810;50.860;19.226;2023-02-04T10:34:22;99754.00;;;-1.00;73.95
58018;BME280;43810;50.860;19.226;2023-02-04T10:36:51;99760.81;;;-0.88;72.73
58018;BME280;43810;50.860;19.226;2023-02-04T10:39:18;99773.41;;;-0.85;72.69
58018;BME280;43810;50.860;19.226;2023-02-04T10:41:55;99757.50;;;-0.95;72.69
58018;BME280;43810;50.860;19.226;2023-02-04T10:44:29;99765.59;;;-0.73;73.63
58018;BME280;43810;50.860;19.226;2023-02-04T10:47:00;99764.13;;;-0.57;71.98
58018;BME280;43810;50.860;19.226;2023-02-04T10:49:26;99765.72;;;-0.56;71.93
58018;BME280;43810;50.860;19.226;2023-02-04T10:51:52;99774.81;;;-0.47;72.02
58018;BME280;43810;50.860;19.226;2023-02-04T10:54:25;99774.34;;;-0.44;72.36
58018;BME280;43810;50.860;19.226;2023-02-04T10:57:03;99788.44;;;-0.45;72.12
58018;BME280;43810;50.860;19.226;2023-02-04T10:59:32;99778.66;;;-0.26;71.75
58018;BME280;43810;50.860;19.226;2023-02-04T11:02:00;99781.25;;;-0.03;69.90
58018;BME280;43810;50.860;19.226;2023-02-04T11:04:27;99797.44;;;0.34;70.37
58018;BME280;43810;50.860;19.226;2023-02-04T11:06:53;99793.44;;;0.32;69.42
58018;BME280;43810;50.860;19.226;2023-02-04T11:09:20;99791.00;;;0.13;69.40
58018;BME280;43810;50.860;19.226;2023-02-04T11:11:47;99786.47;;;-0.03;69.80
58018;BME280;43810;50.860;19.226;2023-02-04T11:14:27;99782.28;;;-0.04;69.69
58018;BME280;43810;50.860;19.226;2023-02-04T11:16:54;99795.09;;;-0.02;69.44
58018;BME280;43810;50.860;19.226;2023-02-04T11:19:36;99809.44;;;-0.05;69.27
58018;BME280;43810;50.860;19.226;2023-02-04T11:22:06;99799.78;;;-0.28;70.26
58018;BME280;43810;50.860;19.226;2023-02-04T11:24:33;99807.28;;;-0.20;71.39
58018;BME280;43810;50.860;19.226;2023-02-04T11:27:23;99813.88;;;-0.17;70.23
58018;BME280;43810;50.860;19.226;2023-02-04T11:29:50;99814.31;;;-0.08;71.20
58018;BME280;43810;50.860;19.226;2023-02-04T11:32:35;99810.91;;;-0.09;69.80
58018;BME280;43810;50.860;19.226;2023-02-04T11:37:41;99815.69;;;-0.18;70.44
58018;BME280;43810;50.860;19.226;2023-02-04T11:40:29;99821.56;;;-0.34;70.73
58018;BME280;43810;50.860;19.226;2023-02-04T11:43:15;99824.09;;;-0.39;70.67
58018;BME280;43810;50.860;19.226;2023-02-04T11:45:42;99822.81;;;-0.25;70.95
58018;BME280;43810;50.860;19.226;2023-02-04T11:48:13;99814.31;;;-0.20;71.31
58018;BME280;43810;50.860;19.226;2023-02-04T11:50:40;99819.09;;;-0.17;70.07
58018;BME280;43810;50.860;19.226;2023-02-04T11:53:09;99816.34;;;-0.34;71.18
58018;BME280;43810;50.860;19.226;2023-02-04T11:55:44;99827.22;;;-0.49;71.31
58018;BME280;43810;50.860;19.226;2023-02-04T11:58:13;99829.75;;;-0.54;70.95
58018;BME280;43810;50.860;19.226;2023-02-04T12:00:40;99833.97;;;-0.41;71.31
58018;BME280;43810;50.860;19.226;2023-02-04T12:03:21;99839.38;;;-0.54;71.04
58018;BME280;43810;50.860;19.226;2023-02-04T12:05:47;99842.38;;;-0.39;71.49
58018;BME280;43810;50.860;19.226;2023-02-04T12:08:25;99848.28;;;-0.08;71.15
58018;BME280;43810;50.860;19.226;2023-02-04T12:11:11;99852.34;;;-0.13;69.67
58018;BME280;43810;50.860;19.226;2023-02-04T12:13:48;99841.44;;;-0.44;70.08
58018;BME280;43810;50.860;19.226;2023-02-04T12:16:15;99842.06;;;-0.61;72.51
58018;BME280;43810;50.860;19.226;2023-02-04T12:18:40;99841.56;;;-0.51;72.38
58018;BME280;43810;50.860;19.226;2023-02-04T12:21:07;99844.72;;;-0.37;72.74
58018;BME280;43810;50.860;19.226;2023-02-04T12:23:32;99836.81;;;-0.07;72.46
58018;BME280;43810;50.860;19.226;2023-02-04T12:25:58;99848.13;;;0.10;73.45
58018;BME280;43810;50.860;19.226;2023-02-04T12:28:25;99856.47;;;0.07;73.16
58018;BME280;43810;50.860;19.226;2023-02-04T12:30:52;99850.31;;;0.01;74.13
58018;BME280;43810;50.860;19.226;2023-02-04T12:33:18;99864.63;;;-0.13;72.50
58018;BME280;43810;50.860;19.226;2023-02-04T12:35:45;99862.91;;;-0.42;73.66
58018;BME280;43810;50.860;19.226;2023-02-04T12:38:10;99851.22;;;-0.82;75.00
58018;BME280;43810;50.860;19.226;2023-02-04T12:40:36;99858.75;;;-1.03;77.00
58018;BME280;43810;50.860;19.226;2023-02-04T12:43:03;99866.72;;;-0.98;77.57
58018;BME280;43810;50.860;19.226;2023-02-04T12:45:29;99862.41;;;-0.93;76.77
58018;BME280;43810;50.860;19.226;2023-02-04T12:47:54;99870.97;;;-0.86;74.86
58018;BME280;43810;50.860;19.226;2023-02-04T12:50:20;99860.06;;;-0.83;74.63
58018;BME280;43810;50.860;19.226;2023-02-04T12:52:51;99876.88;;;-0.78;75.01
58018;BME280;43810;50.860;19.226;2023-02-04T12:55:19;99869.19;;;-0.73;74.86
58018;BME280;43810;50.860;19.226;2023-02-04T12:57:45;99873.03;;;-0.76;74.85
58018;BME280;43810;50.860;19.226;2023-02-04T13:00:13;99877.81;;;-1.03;73.89